createdAt,value
2022-08-10T00:00:24.068Z,102133.44
2022-08-10T00:02:56.324Z,102131.41
2022-08-10T00:05:43.590Z,102135.63
2022-08-10T00:08:38.552Z,102132.16
2022-08-10T00:11:15.454Z,102140.06
2022-08-10T00:14:11.772Z,102130.00
2022-08-10T00:17:17.530Z,102151.00
2022-08-10T00:26:06.418Z,102140.06
2022-08-10T00:28:33.958Z,102133.50
2022-08-10T00:37:07.025Z,102123.94
2022-08-10T00:39:36.120Z,102147.50
2022-08-10T00:42:08.149Z,102114.25
2022-08-10T00:44:42.200Z,102132.38
2022-08-10T00:50:37.317Z,102127.50
2022-08-10T00:53:04.761Z,102113.25
2022-08-10T00:55:32.028Z,102115.25
2022-08-10T00:57:59.273Z,102112.66
2022-08-10T01:00:26.352Z,102126.56
2022-08-10T01:02:53.693Z,102134.56
2022-08-10T01:05:24.112Z,102115.03
2022-08-10T01:08:06.850Z,102136.63
2022-08-10T01:10:43.246Z,102104.56
2022-08-10T01:13:25.448Z,102124.75
2022-08-10T01:16:01.441Z,102112.25
2022-08-10T01:19:00.963Z,102126.59
2022-08-10T01:21:53.918Z,102124.63
2022-08-10T01:24:42.362Z,102124.91
2022-08-10T01:27:15.305Z,102124.69
2022-08-10T01:30:08.374Z,102122.66
2022-08-10T01:33:00.699Z,102113.28
2022-08-10T01:35:36.221Z,102115.25
2022-08-10T01:38:18.092Z,102089.53
2022-08-10T01:40:57.878Z,102106.53
2022-08-10T01:43:54.787Z,102114.59
2022-08-10T01:46:23.791Z,102097.69
2022-08-10T01:48:56.392Z,102090.78
2022-08-10T01:54:29.281Z,102083.44
2022-08-10T01:57:07.992Z,102083.91
2022-08-10T01:59:38.456Z,102096.34
2022-08-10T02:02:15.052Z,102105.44
2022-08-10T02:04:50.135Z,102098.09
2022-08-10T02:07:20.725Z,102083.19
2022-08-10T02:09:54.973Z,102092.31
2022-08-10T02:12:34.100Z,102100.56
2022-08-10T02:18:00.782Z,102082.28
2022-08-10T02:20:58.210Z,102103.34
2022-08-10T02:23:28.886Z,102078.38
2022-08-10T02:26:00.035Z,102096.31
2022-08-10T02:28:30.950Z,102087.78
2022-08-10T02:31:06.284Z,102087.16
2022-08-10T02:33:37.968Z,102088.25
2022-08-10T02:36:08.591Z,102098.63
2022-08-10T02:38:59.392Z,102099.53
2022-08-10T02:45:01.378Z,102115.44
2022-08-10T02:52:10.540Z,102096.88
2022-08-10T02:58:26.487Z,102094.50
2022-08-10T03:01:28.696Z,102119.22
2022-08-10T03:07:56.912Z,102105.72
2022-08-10T03:20:34.179Z,102098.78
2022-08-10T03:22:30.812Z,102095.94
2022-08-10T03:25:02.715Z,102104.81
2022-08-10T03:27:30.771Z,102087.94
2022-08-10T03:30:29.697Z,102098.69
2022-08-10T03:32:45.518Z,102081.09
2022-08-10T03:35:12.934Z,102099.06
2022-08-10T03:37:40.425Z,102089.56
2022-08-10T03:40:08.312Z,102088.13
2022-08-10T03:42:39.700Z,102098.66
2022-08-10T03:49:22.458Z,102088.84
2022-08-10T03:51:59.881Z,102103.97
2022-08-10T03:54:27.901Z,102075.56
2022-08-10T03:56:55.151Z,102094.34
2022-08-10T03:59:28.756Z,102088.19
2022-08-10T04:08:08.057Z,102092.28
2022-08-10T04:16:58.577Z,102089.63
2022-08-10T04:22:38.534Z,102091.03
2022-08-10T04:28:35.545Z,102103.06
2022-08-10T04:31:05.727Z,102096.91
2022-08-10T04:33:33.221Z,102093.19
2022-08-10T04:36:00.870Z,102100.81
2022-08-10T04:38:28.278Z,102104.03
2022-08-10T04:40:55.350Z,102106.25
2022-08-10T04:43:22.302Z,102107.13
2022-08-10T04:45:51.837Z,102101.91
2022-08-10T04:48:41.229Z,102100.22
2022-08-10T04:51:17.182Z,102102.34
2022-08-10T04:54:02.853Z,102108.84
2022-08-10T04:56:37.285Z,102098.00
2022-08-10T04:59:07.982Z,102105.19
2022-08-10T05:02:21.509Z,102110.69
2022-08-10T05:04:34.973Z,102101.09
2022-08-10T05:07:16.324Z,102108.03
2022-08-10T05:10:01.628Z,102112.81
2022-08-10T05:12:37.480Z,102102.34
2022-08-10T05:15:12.154Z,102109.91
2022-08-10T05:17:40.063Z,102114.97
2022-08-10T05:20:10.218Z,102106.72
2022-08-10T05:22:42.131Z,102110.00
2022-08-10T05:25:17.169Z,102110.00
2022-08-10T05:27:44.868Z,102113.66
2022-08-10T05:30:15.162Z,102116.56
2022-08-10T05:32:57.223Z,102123.53
2022-08-10T05:35:26.991Z,102124.03
2022-08-10T05:38:09.087Z,102123.13
2022-08-10T05:40:46.736Z,102123.38
2022-08-10T05:43:19.820Z,102117.41
2022-08-10T05:46:19.998Z,102114.09
2022-08-10T05:48:55.304Z,102118.72
2022-08-10T05:51:23.521Z,102118.31
2022-08-10T05:54:02.655Z,102120.94
2022-08-10T05:56:55.753Z,102129.22
2022-08-10T06:00:33.269Z,102130.31
2022-08-10T06:02:33.399Z,102121.88
2022-08-10T06:04:57.742Z,102122.34
2022-08-10T06:07:29.357Z,102115.81
2022-08-10T06:10:10.713Z,102109.78
2022-08-10T06:12:55.081Z,102111.72
2022-08-10T06:15:52.135Z,102123.88
2022-08-10T06:18:17.471Z,102128.69
2022-08-10T06:23:36.724Z,102129.16
2022-08-10T06:26:08.946Z,102120.69
2022-08-10T06:29:03.106Z,102121.00
2022-08-10T06:31:48.209Z,102099.72
2022-08-10T06:34:23.040Z,102120.31
2022-08-10T06:39:36.686Z,102100.06
2022-08-10T06:42:18.565Z,102124.56
2022-08-10T06:45:01.725Z,102111.75
2022-08-10T06:47:42.051Z,102126.88
2022-08-10T06:50:44.662Z,102097.28
2022-08-10T06:53:23.618Z,102103.03
2022-08-10T06:56:19.766Z,102102.81
2022-08-10T06:59:21.558Z,102129.56
2022-08-10T07:01:55.446Z,102103.81
2022-08-10T07:07:22.866Z,102107.03
2022-08-10T07:09:52.069Z,102111.19
2022-08-10T07:12:24.167Z,102110.88
2022-08-10T07:14:53.568Z,102117.56
2022-08-10T07:17:23.826Z,102115.47
2022-08-10T07:19:58.117Z,102142.50
2022-08-10T07:23:08.109Z,102128.97
2022-08-10T07:25:32.472Z,102132.81
2022-08-10T07:28:06.051Z,102113.78
2022-08-10T07:30:58.836Z,102143.28
2022-08-10T07:33:28.961Z,102117.38
2022-08-10T07:35:56.921Z,102139.53
2022-08-10T07:41:27.715Z,102122.63
2022-08-10T07:44:14.718Z,102134.13
2022-08-10T07:46:46.043Z,102155.63
2022-08-10T07:49:22.827Z,102135.75
2022-08-10T07:51:54.636Z,102130.97
2022-08-10T07:54:23.976Z,102132.94
2022-08-10T07:56:55.902Z,102122.94
2022-08-10T07:59:52.024Z,102121.59
2022-08-10T08:02:36.597Z,102131.72
2022-08-10T08:05:10.141Z,102142.44
2022-08-10T08:07:38.702Z,102136.75
2022-08-10T08:10:07.391Z,102139.22
2022-08-10T08:12:38.391Z,102121.50
2022-08-10T08:16:14.550Z,102126.88
2022-08-10T08:18:00.443Z,102133.06
2022-08-10T08:20:28.794Z,102122.16
2022-08-10T08:24:08.543Z,102121.28
2022-08-10T08:25:47.002Z,102114.28
2022-08-10T08:28:17.402Z,102125.72
2022-08-10T08:30:48.931Z,102119.75
2022-08-10T08:33:41.271Z,102121.66
2022-08-10T08:36:12.082Z,102113.66
2022-08-10T08:38:44.326Z,102121.34
2022-08-10T08:41:35.661Z,102118.06
2022-08-10T08:44:36.650Z,102130.50
2022-08-10T08:48:02.954Z,102115.03
2022-08-10T08:50:25.579Z,102104.66
2022-08-10T08:54:00.713Z,102112.53
2022-08-10T08:56:35.579Z,102103.06
2022-08-10T08:59:29.202Z,102101.44
2022-08-10T09:02:18.391Z,102118.34
2022-08-10T09:05:18.557Z,102112.31
2022-08-10T09:08:03.096Z,102116.22
2022-08-10T09:11:02.194Z,102110.13
2022-08-10T09:13:40.416Z,102121.09
2022-08-10T09:16:28.696Z,102112.91
2022-08-10T09:19:01.930Z,102108.88
2022-08-10T09:22:17.440Z,102108.81
2022-08-10T09:24:47.798Z,102106.44
2022-08-10T09:27:23.013Z,102093.13
2022-08-10T09:30:00.987Z,102094.63
2022-08-10T09:35:39.203Z,102093.66
2022-08-10T09:36:29.893Z,102092.25
2022-08-10T09:38:53.375Z,102082.13
2022-08-10T09:41:30.297Z,102084.25
2022-08-10T09:44:06.535Z,102074.16
2022-08-10T09:46:47.056Z,102071.00
2022-08-10T09:50:04.748Z,102079.59
2022-08-10T09:52:44.456Z,102068.59
2022-08-10T09:55:24.642Z,102073.16
2022-08-10T09:58:23.781Z,102064.06
2022-08-10T10:00:59.186Z,102065.97
2022-08-10T10:03:38.452Z,102069.16
2022-08-10T10:06:11.989Z,102062.53
2022-08-10T10:08:43.090Z,102060.13
2022-08-10T10:11:17.042Z,102053.09
2022-08-10T10:14:16.351Z,102047.19
2022-08-10T10:17:09.898Z,102046.69
2022-08-10T10:19:45.707Z,102035.34
2022-08-10T10:23:03.701Z,102047.94
2022-08-10T10:25:49.851Z,102046.22
2022-08-10T10:29:24.771Z,102038.44
2022-08-10T10:31:55.880Z,102041.34
2022-08-10T10:34:39.948Z,102044.78
2022-08-10T10:37:07.689Z,102031.94
2022-08-10T10:39:36.486Z,102042.34
2022-08-10T10:42:35.020Z,102028.59
2022-08-10T10:45:19.523Z,102027.00
2022-08-10T10:48:09.917Z,102027.94
2022-08-10T10:50:54.295Z,102021.81
2022-08-10T10:53:39.845Z,102018.50
2022-08-10T10:56:33.009Z,102011.78
2022-08-10T10:59:55.480Z,102008.13
2022-08-10T11:02:54.351Z,102003.16
2022-08-10T11:05:20.998Z,101994.03
2022-08-10T11:08:00.832Z,101991.09
2022-08-10T11:10:46.861Z,101986.94
2022-08-10T11:14:26.771Z,101984.66
2022-08-10T11:16:23.237Z,101988.22
2022-08-10T11:20:01.861Z,101980.97
2022-08-10T11:22:21.245Z,101974.56
2022-08-10T11:24:58.651Z,101977.34
2022-08-10T11:27:40.485Z,101969.78
2022-08-10T11:30:10.637Z,101963.06
2022-08-10T11:32:57.406Z,101968.31
2022-08-10T11:35:38.716Z,101967.78
2022-08-10T11:38:34.480Z,101962.06
2022-08-10T11:42:12.276Z,101962.13
2022-08-10T11:44:40.934Z,101954.78
2022-08-10T11:47:23.567Z,101956.69
2022-08-10T11:50:28.935Z,101953.50
2022-08-10T11:53:08.043Z,101957.44
2022-08-10T11:55:35.716Z,101954.88
2022-08-10T11:58:33.595Z,101954.97
2022-08-10T12:01:04.131Z,101949.78
2022-08-10T12:03:37.192Z,101940.53
2022-08-10T12:06:13.297Z,101938.78
2022-08-10T12:10:05.015Z,101953.09
2022-08-10T12:11:31.887Z,101932.56
2022-08-10T12:14:20.795Z,101935.97
2022-08-10T12:16:51.672Z,101935.81
2022-08-10T12:19:59.392Z,101939.56
2022-08-10T12:22:25.246Z,101933.72
2022-08-10T12:25:05.262Z,101927.31
2022-08-10T12:27:42.630Z,101930.13
2022-08-10T12:30:12.861Z,101923.56
2022-08-10T12:32:59.801Z,101925.75
2022-08-10T12:35:37.526Z,101926.31
2022-08-10T12:38:13.413Z,101925.38
2022-08-10T12:40:47.542Z,101921.72
2022-08-10T12:44:07.162Z,101911.81
2022-08-10T12:46:17.651Z,101905.69
2022-08-10T12:49:05.010Z,101905.75
2022-08-10T12:51:33.734Z,101888.81
2022-08-10T12:54:03.588Z,101904.34
2022-08-10T12:56:39.431Z,101901.97
2022-08-10T12:59:07.849Z,101899.78
2022-08-10T13:02:07.548Z,101894.06
2022-08-10T13:04:30.432Z,101884.47
2022-08-10T13:07:01.209Z,101896.97
2022-08-10T13:09:28.890Z,101888.59
2022-08-10T13:12:36.530Z,101884.88
2022-08-10T13:14:58.223Z,101878.75
2022-08-10T13:17:32.349Z,101879.16
2022-08-10T13:20:14.195Z,101869.44
2022-08-10T13:22:42.184Z,101880.38
2022-08-10T13:25:09.575Z,101875.25
2022-08-10T13:28:01.440Z,101873.22
2022-08-10T13:30:37.914Z,101878.19
2022-08-10T13:33:06.229Z,101863.53
2022-08-10T13:35:34.247Z,101865.84
2022-08-10T13:38:02.923Z,101857.50
2022-08-10T13:40:31.706Z,101857.50
2022-08-10T13:43:00.382Z,101858.84
2022-08-10T13:45:27.969Z,101849.88
2022-08-10T13:48:05.818Z,101855.84
2022-08-10T13:50:35.279Z,101858.97
2022-08-10T13:53:14.823Z,101851.44
2022-08-10T13:55:55.022Z,101848.50
2022-08-10T13:58:42.010Z,101840.88
2022-08-10T14:01:14.221Z,101835.16
2022-08-10T14:03:43.236Z,101839.38
2022-08-10T14:06:13.030Z,101839.59
2022-08-10T14:08:45.181Z,101844.50
2022-08-10T14:11:14.889Z,101835.06
2022-08-10T14:13:45.599Z,101840.84
2022-08-10T14:16:13.586Z,101822.16
2022-08-10T14:18:44.771Z,101820.94
2022-08-10T14:21:12.627Z,101810.34
2022-08-10T14:23:53.214Z,101812.19
2022-08-10T14:26:29.403Z,101817.56
2022-08-10T14:29:02.737Z,101816.91
2022-08-10T14:31:36.431Z,101799.59
2022-08-10T14:34:05.217Z,101793.28
2022-08-10T14:36:46.094Z,101797.44
2022-08-10T14:39:21.420Z,101787.63
2022-08-10T14:42:01.637Z,101774.97
2022-08-10T14:44:45.040Z,101785.59
2022-08-10T14:48:03.296Z,101784.13
2022-08-10T14:50:00.660Z,101777.50
2022-08-10T14:52:28.259Z,101778.88
2022-08-10T14:54:57.128Z,101769.44
2022-08-10T14:57:24.712Z,101784.59
2022-08-10T15:00:29.412Z,101777.06
2022-08-10T15:03:01.408Z,101781.88
2022-08-10T15:05:39.293Z,101776.59
2022-08-10T15:08:07.050Z,101780.88
2022-08-10T15:10:33.960Z,101780.84
2022-08-10T15:13:00.811Z,101764.66
2022-08-10T15:15:28.804Z,101762.84
2022-08-10T15:17:58.001Z,101767.03
2022-08-10T15:20:27.982Z,101762.94
2022-08-10T15:23:31.128Z,101762.41
2022-08-10T15:26:10.808Z,101759.50
2022-08-10T15:29:23.690Z,101757.53
2022-08-10T15:31:34.233Z,101746.16
2022-08-10T15:34:28.647Z,101752.44
2022-08-10T15:37:40.670Z,101756.69
2022-08-10T15:40:28.060Z,101748.72
2022-08-10T15:43:20.126Z,101748.00
2022-08-10T15:46:01.127Z,101743.78
2022-08-10T15:48:33.097Z,101745.91
2022-08-10T15:51:05.926Z,101752.44
2022-08-10T15:53:49.040Z,101747.72
2022-08-10T15:56:36.432Z,101743.63
2022-08-10T15:59:27.098Z,101742.69
2022-08-10T16:02:04.160Z,101737.66
2022-08-10T16:05:04.090Z,101733.09
2022-08-10T16:07:46.097Z,101739.22
2022-08-10T16:10:25.412Z,101727.69
2022-08-10T16:13:00.972Z,101735.03
2022-08-10T16:15:31.007Z,101731.38
2022-08-10T16:18:02.983Z,101728.22
2022-08-10T16:20:53.251Z,101732.13
2022-08-10T16:23:35.381Z,101721.59
2022-08-10T16:26:14.525Z,101721.22
2022-08-10T16:28:47.939Z,101726.28
2022-08-10T16:31:23.138Z,101735.16
2022-08-10T16:33:55.156Z,101736.31
2022-08-10T16:36:31.592Z,101716.09
2022-08-10T16:38:58.934Z,101717.63
2022-08-10T16:42:02.970Z,101723.50
2022-08-10T16:44:17.181Z,101717.59
2022-08-10T16:46:45.040Z,101724.53
2022-08-10T16:49:14.472Z,101731.88
2022-08-10T16:51:45.897Z,101722.81
2022-08-10T16:54:15.122Z,101722.03
2022-08-10T16:56:48.675Z,101716.44
2022-08-10T16:59:24.862Z,101705.81
2022-08-10T17:01:54.122Z,101713.00
2022-08-10T17:04:22.949Z,101711.06
2022-08-10T17:06:56.389Z,101719.66
2022-08-10T17:09:27.526Z,101713.41
2022-08-10T17:11:56.172Z,101714.19
2022-08-10T17:14:29.762Z,101714.56
2022-08-10T17:17:00.358Z,101714.34
2022-08-10T17:19:28.564Z,101703.31
2022-08-10T17:22:00.150Z,101705.38
2022-08-10T17:24:43.175Z,101710.72
2022-08-10T17:28:05.748Z,101706.34
2022-08-10T17:30:04.901Z,101703.41
2022-08-10T17:33:19.258Z,101710.97
2022-08-10T17:35:49.225Z,101702.97
2022-08-10T17:38:26.249Z,101708.75
2022-08-10T17:40:57.971Z,101694.28
2022-08-10T17:43:58.177Z,101702.09
2022-08-10T17:46:13.659Z,101710.13
2022-08-10T17:48:41.885Z,101698.06
2022-08-10T17:51:14.076Z,101706.97
2022-08-10T17:53:42.565Z,101701.88
2022-08-10T17:56:10.798Z,101696.38
2022-08-10T17:58:56.554Z,101691.06
2022-08-10T18:01:41.210Z,101692.00
2022-08-10T18:04:17.695Z,101689.28
2022-08-10T18:06:45.482Z,101704.78
2022-08-10T18:09:24.978Z,101698.78
2022-08-10T18:11:57.749Z,101695.81
2022-08-10T18:14:29.583Z,101701.28
2022-08-10T18:17:01.027Z,101710.03
2022-08-10T18:19:30.966Z,101694.13
2022-08-10T18:21:58.353Z,101686.66
2022-08-10T18:24:27.446Z,101700.28
2022-08-10T18:26:55.115Z,101696.13
2022-08-10T18:29:28.766Z,101704.78
2022-08-10T18:32:03.920Z,101696.38
2022-08-10T18:34:32.243Z,101704.72
2022-08-10T18:37:01.122Z,101700.16
2022-08-10T18:39:32.545Z,101707.50
2022-08-10T18:42:06.612Z,101707.09
2022-08-10T18:44:48.229Z,101705.19
2022-08-10T18:47:31.260Z,101714.38
2022-08-10T18:50:01.671Z,101713.91
2022-08-10T18:52:32.127Z,101720.44
2022-08-10T18:55:14.538Z,101717.66
2022-08-10T18:58:20.618Z,101724.88
2022-08-10T19:00:57.454Z,101725.31
2022-08-10T19:03:39.482Z,101723.09
2022-08-10T19:06:39.260Z,101723.56
2022-08-10T19:09:46.625Z,101728.38
2022-08-10T19:12:44.283Z,101723.22
2022-08-10T19:15:16.517Z,101731.94
2022-08-10T19:18:06.501Z,101724.09
2022-08-10T19:20:33.253Z,101731.41
2022-08-10T19:23:10.505Z,101728.69
2022-08-10T19:26:41.181Z,101733.31
2022-08-10T19:28:47.452Z,101728.69
2022-08-10T19:31:22.663Z,101733.66
2022-08-10T19:34:14.427Z,101738.09
2022-08-10T19:37:15.409Z,101730.75
2022-08-10T19:40:04.060Z,101735.16
2022-08-10T19:42:48.663Z,101743.53
2022-08-10T19:45:56.207Z,101739.41
2022-08-10T19:48:11.247Z,101743.75
2022-08-10T19:50:48.456Z,101745.50
2022-08-10T19:53:25.085Z,101744.78
2022-08-10T19:56:31.009Z,101749.31
2022-08-10T20:00:06.991Z,101745.34
2022-08-10T20:02:17.689Z,101737.09
2022-08-10T20:04:56.110Z,101746.28
2022-08-10T20:07:30.529Z,101741.97
2022-08-10T20:10:06.882Z,101751.09
2022-08-10T20:12:55.223Z,101750.19
2022-08-10T20:15:41.547Z,101752.31
2022-08-10T20:18:22.309Z,101752.22
2022-08-10T20:20:52.869Z,101749.97
2022-08-10T20:23:30.323Z,101755.19
2022-08-10T20:26:01.913Z,101752.31
2022-08-10T20:28:49.693Z,101764.84
2022-08-10T20:31:24.464Z,101759.53
2022-08-10T20:34:00.346Z,101753.97
2022-08-10T20:36:33.136Z,101760.19
2022-08-10T20:39:06.881Z,101757.50
2022-08-10T20:41:53.456Z,101745.53
2022-08-10T20:44:29.103Z,101759.75
2022-08-10T20:47:08.045Z,101757.06
2022-08-10T20:49:45.382Z,101757.00
2022-08-10T20:52:12.834Z,101750.63
2022-08-10T20:54:52.894Z,101757.78
2022-08-10T20:57:55.682Z,101753.50
2022-08-10T21:00:40.687Z,101747.16
2022-08-10T21:03:31.853Z,101756.63
2022-08-10T21:06:08.994Z,101753.88
2022-08-10T21:08:54.702Z,101762.75
2022-08-10T21:11:36.884Z,101748.91
2022-08-10T21:14:59.061Z,101743.28
2022-08-10T21:18:09.707Z,101742.84
2022-08-10T21:20:59.430Z,101751.97
2022-08-10T21:27:00.483Z,101756.59
2022-08-10T21:29:51.056Z,101756.97
2022-08-10T21:32:28.789Z,101755.72
2022-08-10T21:35:20.163Z,101753.84
2022-08-10T21:38:26.413Z,101736.44
2022-08-10T21:41:17.962Z,101750.72
2022-08-10T21:44:36.855Z,101742.28
2022-08-10T21:48:07.175Z,101748.56
2022-08-10T21:50:48.456Z,101733.94
2022-08-10T21:53:44.851Z,101744.22
2022-08-10T21:57:01.090Z,101744.59
2022-08-10T22:00:11.894Z,101744.22
2022-08-10T22:02:57.803Z,101735.13
2022-08-10T22:06:03.776Z,101735.63
2022-08-10T22:09:05.645Z,101737.56
2022-08-10T22:11:59.181Z,101726.06
2022-08-10T22:14:48.880Z,101735.25
2022-08-10T22:18:10.595Z,101736.03
2022-08-10T22:20:56.141Z,101730.88
2022-08-10T22:23:42.761Z,101731.72
2022-08-10T22:27:01.048Z,101723.31
2022-08-10T22:29:56.796Z,101723.34
2022-08-10T22:32:50.734Z,101716.69
2022-08-10T22:35:58.172Z,101727.72
2022-08-10T22:39:02.307Z,101728.13
2022-08-10T22:42:01.936Z,101727.81
2022-08-10T22:44:48.374Z,101731.34
2022-08-10T22:47:37.241Z,101721.44
2022-08-10T22:50:07.869Z,101717.09
2022-08-10T22:53:01.564Z,101717.09
2022-08-10T22:55:53.975Z,101703.19
2022-08-10T22:58:39.306Z,101703.59
2022-08-10T23:01:36.285Z,101706.38
2022-08-10T23:04:21.952Z,101698.84
2022-08-10T23:07:08.410Z,101703.22
2022-08-10T23:09:37.102Z,101694.09
2022-08-10T23:12:16.536Z,101699.25
2022-08-10T23:14:59.192Z,101682.59
2022-08-10T23:18:00.418Z,101698.50
2022-08-10T23:20:30.183Z,101694.47
2022-08-10T23:23:04.720Z,101697.66
2022-08-10T23:25:33.914Z,101691.72
2022-08-10T23:28:12.572Z,101706.00
2022-08-10T23:30:42.797Z,101691.34
2022-08-10T23:33:14.692Z,101695.28
2022-08-10T23:36:29.558Z,101701.25
2022-08-10T23:38:40.469Z,101691.34
2022-08-10T23:41:11.711Z,101698.47
2022-08-10T23:44:02.793Z,101698.09
2022-08-10T23:46:31.133Z,101689.38
2022-08-10T23:49:00.398Z,101702.03
2022-08-10T23:51:38.927Z,101700.47
2022-08-10T23:54:21.165Z,101697.69
2022-08-10T23:56:54.274Z,101701.28
2022-08-10T23:59:23.117Z,101698.09
